sensor_id;sensor_type;location;lat;lon;timestamp;temperature;humidity
9167;DHT22;4618;48.818;9.088;2023-05-08T00:00:36;14.30;99.90
9167;DHT22;4618;48.818;9.088;2023-05-08T00:03:03;14.40;99.90
9167;DHT22;4618;48.818;9.088;2023-05-08T00:05:28;14.40;99.90
9167;DHT22;4618;48.818;9.088;2023-05-08T00:07:54;14.40;99.90
9167;DHT22;4618;48.818;9.088;2023-05-08T00:10:26;14.40;99.90
9167;DHT22;4618;48.818;9.088;2023-05-08T00:12:52;14.40;99.90
9167;DHT22;4618;48.818;9.088;2023-05-08T00:15:18;14.40;99.90
9167;DHT22;4618;48.818;9.088;2023-05-08T00:17:43;14.50;99.90
9167;DHT22;4618;48.818;9.088;2023-05-08T00:20:09;14.50;99.90
9167;DHT22;4618;48.818;9.088;2023-05-08T00:22:35;14.50;99.90
9167;DHT22;4618;48.818;9.088;2023-05-08T00:25:00;14.40;1.00
9167;DHT22;4618;48.818;9.088;2023-05-08T00:27:26;14.40;1.00
9167;DHT22;4618;48.818;9.088;2023-05-08T00:29:51;14.50;99.90
9167;DHT22;4618;48.818;9.088;2023-05-08T00:32:17;14.50;99.90
9167;DHT22;4618;48.818;9.088;2023-05-08T00:34:42;14.50;99.90
9167;DHT22;4618;48.818;9.088;2023-05-08T00:37:08;14.60;1.00
9167;DHT22;4618;48.818;9.088;2023-05-08T00:39:34;14.50;1.00
9167;DHT22;4618;48.818;9.088;2023-05-08T00:41:59;14.50;1.00
9167;DHT22;4618;48.818;9.088;2023-05-08T00:44:25;14.50;1.00
9167;DHT22;4618;48.818;9.088;2023-05-08T00:46:50;14.60;1.00
9167;DHT22;4618;48.818;9.088;2023-05-08T00:49:16;14.60;1.00
9167;DHT22;4618;48.818;9.088;2023-05-08T00:51:44;14.70;1.00
9167;DHT22;4618;48.818;9.088;2023-05-08T00:54:10;14.50;1.00
9167;DHT22;4618;48.818;9.088;2023-05-08T00:56:37;14.50;1.00
9167;DHT22;4618;48.818;9.088;2023-05-08T00:59:06;14.50;1.00
9167;DHT22;4618;48.818;9.088;2023-05-08T01:01:35;14.50;1.00
9167;DHT22;4618;48.818;9.088;2023-05-08T01:04:05;14.60;1.00
9167;DHT22;4618;48.818;9.088;2023-05-08T01:06:31;14.70;1.00
9167;DHT22;4618;48.818;9.088;2023-05-08T01:08:57;14.60;1.00
9167;DHT22;4618;48.818;9.088;2023-05-08T01:11:43;14.60;1.00
9167;DHT22;4618;48.818;9.088;2023-05-08T01:31:04;14.40;1.00
9167;DHT22;4618;48.818;9.088;2023-05-08T01:34:04;14.40;1.00
9167;DHT22;4618;48.818;9.088;2023-05-08T01:41:26;14.50;1.00
9167;DHT22;4618;48.818;9.088;2023-05-08T01:44:14;14.30;1.00
9167;DHT22;4618;48.818;9.088;2023-05-08T01:46:41;14.40;1.00
9167;DHT22;4618;48.818;9.088;2023-05-08T01:49:11;14.30;1.00
9167;DHT22;4618;48.818;9.088;2023-05-08T01:51:43;14.30;1.00
9167;DHT22;4618;48.818;9.088;2023-05-08T01:54:14;14.20;1.00
9167;DHT22;4618;48.818;9.088;2023-05-08T01:56:42;14.20;99.90
9167;DHT22;4618;48.818;9.088;2023-05-08T01:59:09;14.10;99.90
9167;DHT22;4618;48.818;9.088;2023-05-08T02:01:38;14.10;99.90
9167;DHT22;4618;48.818;9.088;2023-05-08T02:04:05;14.20;99.90
9167;DHT22;4618;48.818;9.088;2023-05-08T02:06:33;14.20;99.90
9167;DHT22;4618;48.818;9.088;2023-05-08T02:08:59;14.10;99.90
9167;DHT22;4618;48.818;9.088;2023-05-08T02:11:26;14.10;99.90
9167;DHT22;4618;48.818;9.088;2023-05-08T02:13:53;14.20;1.00
9167;DHT22;4618;48.818;9.088;2023-05-08T02:16:20;14.20;1.00
9167;DHT22;4618;48.818;9.088;2023-05-08T02:18:50;14.20;1.00
9167;DHT22;4618;48.818;9.088;2023-05-08T02:21:16;14.20;1.00
9167;DHT22;4618;48.818;9.088;2023-05-08T02:23:44;14.20;1.00
9167;DHT22;4618;48.818;9.088;2023-05-08T02:26:13;14.20;1.00
9167;DHT22;4618;48.818;9.088;2023-05-08T02:28:40;14.30;1.00
9167;DHT22;4618;48.818;9.088;2023-05-08T02:31:07;14.20;1.00
9167;DHT22;4618;48.818;9.088;2023-05-08T02:33:34;14.20;1.00
9167;DHT22;4618;48.818;9.088;2023-05-08T02:36:01;14.10;1.00
9167;DHT22;4618;48.818;9.088;2023-05-08T02:38:28;14.30;1.00
9167;DHT22;4618;48.818;9.088;2023-05-08T02:40:57;14.30;1.00
9167;DHT22;4618;48.818;9.088;2023-05-08T02:43:25;14.20;1.00
9167;DHT22;4618;48.818;9.088;2023-05-08T02:48:25;14.30;1.00
9167;DHT22;4618;48.818;9.088;2023-05-08T02:53:56;14.30;1.00
9167;DHT22;4618;48.818;9.088;2023-05-08T02:56:37;14.30;1.00
9167;DHT22;4618;48.818;9.088;2023-05-08T02:59:17;14.30;99.90
9167;DHT22;4618;48.818;9.088;2023-05-08T03:01:52;14.30;99.90
9167;DHT22;4618;48.818;9.088;2023-05-08T03:04:30;14.30;99.90
9167;DHT22;4618;48.818;9.088;2023-05-08T03:06:57;14.30;99.90
9167;DHT22;4618;48.818;9.088;2023-05-08T03:09:27;14.30;99.90
9167;DHT22;4618;48.818;9.088;2023-05-08T03:12:05;14.40;99.90
9167;DHT22;4618;48.818;9.088;2023-05-08T03:14:36;14.30;99.90
9167;DHT22;4618;48.818;9.088;2023-05-08T03:17:05;14.30;99.90
9167;DHT22;4618;48.818;9.088;2023-05-08T03:19:35;14.30;99.90
9167;DHT22;4618;48.818;9.088;2023-05-08T03:22:02;14.40;99.90
9167;DHT22;4618;48.818;9.088;2023-05-08T03:24:30;14.30;99.90
9167;DHT22;4618;48.818;9.088;2023-05-08T03:26:58;14.30;99.90
9167;DHT22;4618;48.818;9.088;2023-05-08T03:29:24;14.30;99.90
9167;DHT22;4618;48.818;9.088;2023-05-08T03:31:50;14.30;99.90
9167;DHT22;4618;48.818;9.088;2023-05-08T03:34:16;14.30;99.90
9167;DHT22;4618;48.818;9.088;2023-05-08T03:36:43;14.20;99.90
9167;DHT22;4618;48.818;9.088;2023-05-08T03:39:09;14.10;99.90
9167;DHT22;4618;48.818;9.088;2023-05-08T03:41:35;14.10;99.90
9167;DHT22;4618;48.818;9.088;2023-05-08T03:44:02;14.10;99.90
9167;DHT22;4618;48.818;9.088;2023-05-08T03:46:30;14.10;99.90
9167;DHT22;4618;48.818;9.088;2023-05-08T03:48:56;13.90;99.90
9167;DHT22;4618;48.818;9.088;2023-05-08T03:51:25;14.00;99.90
9167;DHT22;4618;48.818;9.088;2023-05-08T03:53:52;14.00;99.90
9167;DHT22;4618;48.818;9.088;2023-05-08T03:56:17;14.00;99.90
9167;DHT22;4618;48.818;9.088;2023-05-08T04:01:53;14.00;99.90
9167;DHT22;4618;48.818;9.088;2023-05-08T04:04:35;13.80;99.90
9167;DHT22;4618;48.818;9.088;2023-05-08T04:07:26;13.70;99.90
9167;DHT22;4618;48.818;9.088;2023-05-08T04:15:33;13.90;99.90
9167;DHT22;4618;48.818;9.088;2023-05-08T04:18:03;13.90;99.90
9167;DHT22;4618;48.818;9.088;2023-05-08T04:20:31;14.00;99.90
9167;DHT22;4618;48.818;9.088;2023-05-08T04:22:57;14.00;99.90
9167;DHT22;4618;48.818;9.088;2023-05-08T04:25:24;14.10;99.90
9167;DHT22;4618;48.818;9.088;2023-05-08T04:27:50;14.10;99.90
9167;DHT22;4618;48.818;9.088;2023-05-08T04:30:17;14.00;99.90
9167;DHT22;4618;48.818;9.088;2023-05-08T04:32:43;14.20;99.90
9167;DHT22;4618;48.818;9.088;2023-05-08T04:35:09;14.10;99.90
9167;DHT22;4618;48.818;9.088;2023-05-08T04:37:37;14.20;99.90
9167;DHT22;4618;48.818;9.088;2023-05-08T04:40:04;14.20;1.00
9167;DHT22;4618;48.818;9.088;2023-05-08T04:42:29;14.30;1.00
9167;DHT22;4618;48.818;9.088;2023-05-08T04:44:55;14.40;1.00
9167;DHT22;4618;48.818;9.088;2023-05-08T04:47:21;14.40;99.90
9167;DHT22;4618;48.818;9.088;2023-05-08T04:49:48;14.50;99.90
9167;DHT22;4618;48.818;9.088;2023-05-08T04:52:14;14.50;99.90
9167;DHT22;4618;48.818;9.088;2023-05-08T04:54:39;14.50;99.90
9167;DHT22;4618;48.818;9.088;2023-05-08T04:57:05;14.60;99.90
9167;DHT22;4618;48.818;9.088;2023-05-08T04:59:32;14.50;99.90
9167;DHT22;4618;48.818;9.088;2023-05-08T05:01:58;14.60;99.90
9167;DHT22;4618;48.818;9.088;2023-05-08T05:04:26;14.60;99.90
9167;DHT22;4618;48.818;9.088;2023-05-08T05:06:52;14.60;99.90
9167;DHT22;4618;48.818;9.088;2023-05-08T05:09:18;14.60;99.90
9167;DHT22;4618;48.818;9.088;2023-05-08T05:11:43;14.60;99.90
9167;DHT22;4618;48.818;9.088;2023-05-08T05:14:09;14.60;99.90
9167;DHT22;4618;48.818;9.088;2023-05-08T05:16:34;14.60;99.90
9167;DHT22;4618;48.818;9.088;2023-05-08T05:19:00;14.70;99.90
9167;DHT22;4618;48.818;9.088;2023-05-08T05:21:25;14.60;99.90
9167;DHT22;4618;48.818;9.088;2023-05-08T05:23:52;14.60;99.90
9167;DHT22;4618;48.818;9.088;2023-05-08T05:26:18;14.60;99.90
9167;DHT22;4618;48.818;9.088;2023-05-08T05:28:43;14.60;99.90
9167;DHT22;4618;48.818;9.088;2023-05-08T05:31:09;14.60;99.90
9167;DHT22;4618;48.818;9.088;2023-05-08T05:33:35;14.60;99.90
9167;DHT22;4618;48.818;9.088;2023-05-08T05:36:00;14.50;99.90
9167;DHT22;4618;48.818;9.088;2023-05-08T05:38:26;14.50;99.90
9167;DHT22;4618;48.818;9.088;2023-05-08T05:40:52;14.50;99.90
9167;DHT22;4618;48.818;9.088;2023-05-08T05:43:17;14.60;99.90
9167;DHT22;4618;48.818;9.088;2023-05-08T05:45:43;14.70;99.90
9167;DHT22;4618;48.818;9.088;2023-05-08T05:48:09;14.70;99.90
9167;DHT22;4618;48.818;9.088;2023-05-08T05:50:34;14.90;99.90
9167;DHT22;4618;48.818;9.088;2023-05-08T05:53:02;14.90;99.90
9167;DHT22;4618;48.818;9.088;2023-05-08T05:55:27;15.00;99.90
9167;DHT22;4618;48.818;9.088;2023-05-08T05:57:53;15.00;99.90
9167;DHT22;4618;48.818;9.088;2023-05-08T06:00:19;15.00;99.90
9167;DHT22;4618;48.818;9.088;2023-05-08T06:02:45;15.10;99.90
9167;DHT22;4618;48.818;9.088;2023-05-08T06:05:11;15.00;99.90
9167;DHT22;4618;48.818;9.088;2023-05-08T06:07:37;15.10;99.90
9167;DHT22;4618;48.818;9.088;2023-05-08T06:10:03;15.10;99.90
9167;DHT22;4618;48.818;9.088;2023-05-08T06:12:29;14.90;83.20
9167;DHT22;4618;48.818;9.088;2023-05-08T06:14:55;14.90;99.90
9167;DHT22;4618;48.818;9.088;2023-05-08T06:17:20;15.00;99.90
9167;DHT22;4618;48.818;9.088;2023-05-08T06:19:46;15.00;75.90
9167;DHT22;4618;48.818;9.088;2023-05-08T06:22:15;15.10;99.90
9167;DHT22;4618;48.818;9.088;2023-05-08T06:24:41;15.20;23.20
9167;DHT22;4618;48.818;9.088;2023-05-08T06:27:07;15.20;1.00
9167;DHT22;4618;48.818;9.088;2023-05-08T06:29:33;15.20;1.00
9167;DHT22;4618;48.818;9.088;2023-05-08T06:31:58;15.30;1.00
9167;DHT22;4618;48.818;9.088;2023-05-08T06:34:24;15.30;1.00
9167;DHT22;4618;48.818;9.088;2023-05-08T06:36:50;15.30;99.90
9167;DHT22;4618;48.818;9.088;2023-05-08T06:39:15;15.30;99.90
9167;DHT22;4618;48.818;9.088;2023-05-08T06:41:41;15.20;99.90
9167;DHT22;4618;48.818;9.088;2023-05-08T06:44:06;15.20;99.90
9167;DHT22;4618;48.818;9.088;2023-05-08T06:46:32;15.20;1.00
9167;DHT22;4618;48.818;9.088;2023-05-08T06:48:57;15.20;99.90
9167;DHT22;4618;48.818;9.088;2023-05-08T06:51:23;15.20;99.90
9167;DHT22;4618;48.818;9.088;2023-05-08T06:53:49;15.10;99.90
9167;DHT22;4618;48.818;9.088;2023-05-08T06:56:14;15.10;99.90
9167;DHT22;4618;48.818;9.088;2023-05-08T06:58:40;15.30;99.90
9167;DHT22;4618;48.818;9.088;2023-05-08T07:01:05;15.30;7.60
9167;DHT22;4618;48.818;9.088;2023-05-08T07:03:31;15.40;48.80
9167;DHT22;4618;48.818;9.088;2023-05-08T07:05:57;15.40;1.00
9167;DHT22;4618;48.818;9.088;2023-05-08T07:08:22;15.40;1.00
9167;DHT22;4618;48.818;9.088;2023-05-08T07:10:48;15.40;44.10
9167;DHT22;4618;48.818;9.088;2023-05-08T07:13:13;15.30;1.00
9167;DHT22;4618;48.818;9.088;2023-05-08T07:15:44;15.30;1.00
9167;DHT22;4618;48.818;9.088;2023-05-08T07:18:09;15.40;48.40
9167;DHT22;4618;48.818;9.088;2023-05-08T07:20:35;15.30;99.90
9167;DHT22;4618;48.818;9.088;2023-05-08T07:23:01;15.30;1.00
9167;DHT22;4618;48.818;9.088;2023-05-08T07:25:27;15.30;1.00
9167;DHT22;4618;48.818;9.088;2023-05-08T07:27:52;15.30;1.00
9167;DHT22;4618;48.818;9.088;2023-05-08T07:30:18;15.30;1.00
9167;DHT22;4618;48.818;9.088;2023-05-08T07:32:43;15.30;1.00
9167;DHT22;4618;48.818;9.088;2023-05-08T07:35:09;15.30;40.80
9167;DHT22;4618;48.818;9.088;2023-05-08T07:37:37;15.50;99.90
9167;DHT22;4618;48.818;9.088;2023-05-08T07:40:03;15.50;79.30
9167;DHT22;4618;48.818;9.088;2023-05-08T07:42:29;15.50;27.40
9167;DHT22;4618;48.818;9.088;2023-05-08T07:44:54;15.50;1.00
9167;DHT22;4618;48.818;9.088;2023-05-08T07:47:20;15.50;1.00
9167;DHT22;4618;48.818;9.088;2023-05-08T07:49:46;15.50;1.00
9167;DHT22;4618;48.818;9.088;2023-05-08T07:52:11;15.50;1.00
9167;DHT22;4618;48.818;9.088;2023-05-08T07:54:37;15.60;1.00
9167;DHT22;4618;48.818;9.088;2023-05-08T07:57:02;15.60;1.00
9167;DHT22;4618;48.818;9.088;2023-05-08T07:59:28;15.50;1.00
9167;DHT22;4618;48.818;9.088;2023-05-08T08:01:53;15.50;1.00
9167;DHT22;4618;48.818;9.088;2023-05-08T08:04:19;15.50;1.00
9167;DHT22;4618;48.818;9.088;2023-05-08T08:06:44;15.60;1.00
9167;DHT22;4618;48.818;9.088;2023-05-08T08:09:10;15.50;1.00
9167;DHT22;4618;48.818;9.088;2023-05-08T08:11:35;15.70;27.90
9167;DHT22;4618;48.818;9.088;2023-05-08T08:14:01;15.80;28.10
9167;DHT22;4618;48.818;9.088;2023-05-08T08:16:27;15.80;1.00
9167;DHT22;4618;48.818;9.088;2023-05-08T08:18:52;15.90;1.00
9167;DHT22;4618;48.818;9.088;2023-05-08T08:21:18;16.00;99.90
9167;DHT22;4618;48.818;9.088;2023-05-08T08:23:44;16.30;99.90
9167;DHT22;4618;48.818;9.088;2023-05-08T08:26:09;16.60;97.10
9167;DHT22;4618;48.818;9.088;2023-05-08T08:28:35;16.80;99.90
9167;DHT22;4618;48.818;9.088;2023-05-08T08:31:00;16.80;99.90
9167;DHT22;4618;48.818;9.088;2023-05-08T08:33:27;16.80;99.90
9167;DHT22;4618;48.818;9.088;2023-05-08T08:35:53;16.70;99.90
9167;DHT22;4618;48.818;9.088;2023-05-08T08:38:19;16.50;1.00
9167;DHT22;4618;48.818;9.088;2023-05-08T08:40:44;16.40;1.00
9167;DHT22;4618;48.818;9.088;2023-05-08T08:43:10;16.30;99.90
9167;DHT22;4618;48.818;9.088;2023-05-08T08:45:36;16.30;1.00
9167;DHT22;4618;48.818;9.088;2023-05-08T08:48:03;16.10;1.00
9167;DHT22;4618;48.818;9.088;2023-05-08T08:50:32;16.00;1.00
9167;DHT22;4618;48.818;9.088;2023-05-08T08:53:09;16.00;1.00
9167;DHT22;4618;48.818;9.088;2023-05-08T08:55:39;15.80;99.90
9167;DHT22;4618;48.818;9.088;2023-05-08T08:58:20;15.60;86.20
9167;DHT22;4618;48.818;9.088;2023-05-08T09:00:48;15.50;1.00
9167;DHT22;4618;48.818;9.088;2023-05-08T09:03:14;15.50;99.90
9167;DHT22;4618;48.818;9.088;2023-05-08T09:05:40;15.50;1.00
9167;DHT22;4618;48.818;9.088;2023-05-08T09:08:07;15.40;1.00
9167;DHT22;4618;48.818;9.088;2023-05-08T09:10:34;15.40;1.00
9167;DHT22;4618;48.818;9.088;2023-05-08T09:13:01;15.40;1.00
9167;DHT22;4618;48.818;9.088;2023-05-08T09:15:27;15.40;1.00
9167;DHT22;4618;48.818;9.088;2023-05-08T09:17:52;15.40;1.00
9167;DHT22;4618;48.818;9.088;2023-05-08T09:20:18;15.40;1.00
9167;DHT22;4618;48.818;9.088;2023-05-08T09:22:45;15.50;1.00
9167;DHT22;4618;48.818;9.088;2023-05-08T09:25:11;15.40;1.00
9167;DHT22;4618;48.818;9.088;2023-05-08T09:27:36;15.60;34.20
9167;DHT22;4618;48.818;9.088;2023-05-08T09:32:31;15.60;99.90
9167;DHT22;4618;48.818;9.088;2023-05-08T09:34:58;15.50;1.00
9167;DHT22;4618;48.818;9.088;2023-05-08T09:37:24;15.60;16.40
9167;DHT22;4618;48.818;9.088;2023-05-08T09:39:50;15.70;1.00
9167;DHT22;4618;48.818;9.088;2023-05-08T09:42:16;15.70;1.00
9167;DHT22;4618;48.818;9.088;2023-05-08T09:47:15;16.00;1.00
9167;DHT22;4618;48.818;9.088;2023-05-08T09:50:01;16.10;99.90
9167;DHT22;4618;48.818;9.088;2023-05-08T09:52:31;16.20;1.00
9167;DHT22;4618;48.818;9.088;2023-05-08T09:55:02;16.30;99.90
9167;DHT22;4618;48.818;9.088;2023-05-08T09:57:30;16.40;1.00
9167;DHT22;4618;48.818;9.088;2023-05-08T10:02:27;16.60;1.00
9167;DHT22;4618;48.818;9.088;2023-05-08T10:04:53;16.70;1.00
9167;DHT22;4618;48.818;9.088;2023-05-08T10:07:33;16.80;17.30
9167;DHT22;4618;48.818;9.088;2023-05-08T10:10:03;17.10;91.80
9167;DHT22;4618;48.818;9.088;2023-05-08T10:12:29;17.30;1.00
9167;DHT22;4618;48.818;9.088;2023-05-08T10:14:55;17.30;99.90
9167;DHT22;4618;48.818;9.088;2023-05-08T10:17:29;17.40;99.90
9167;DHT22;4618;48.818;9.088;2023-05-08T10:19:58;17.60;1.00
9167;DHT22;4618;48.818;9.088;2023-05-08T10:22:26;17.70;1.00
9167;DHT22;4618;48.818;9.088;2023-05-08T10:24:55;17.70;1.00
9167;DHT22;4618;48.818;9.088;2023-05-08T10:27:30;18.00;99.90
9167;DHT22;4618;48.818;9.088;2023-05-08T10:30:02;18.00;1.00
9167;DHT22;4618;48.818;9.088;2023-05-08T10:32:37;18.20;99.90
9167;DHT22;4618;48.818;9.088;2023-05-08T10:35:09;18.60;99.90
9167;DHT22;4618;48.818;9.088;2023-05-08T10:37:36;18.90;1.00
9167;DHT22;4618;48.818;9.088;2023-05-08T10:40:03;19.20;1.00
9167;DHT22;4618;48.818;9.088;2023-05-08T10:42:29;19.30;99.90
9167;DHT22;4618;48.818;9.088;2023-05-08T10:44:55;18.80;1.00
9167;DHT22;4618;48.818;9.088;2023-05-08T10:52:42;20.40;1.00
9167;DHT22;4618;48.818;9.088;2023-05-08T10:55:44;20.70;4.20
9167;DHT22;4618;48.818;9.088;2023-05-08T10:58:13;20.70;1.00
9167;DHT22;4618;48.818;9.088;2023-05-08T11:03:29;21.30;99.90
9167;DHT22;4618;48.818;9.088;2023-05-08T11:05:57;21.30;99.90
9167;DHT22;4618;48.818;9.088;2023-05-08T11:08:24;21.40;1.00
9167;DHT22;4618;48.818;9.088;2023-05-08T11:13:39;22.60;1.00
9167;DHT22;4618;48.818;9.088;2023-05-08T11:16:05;22.80;1.00
9167;DHT22;4618;48.818;9.088;2023-05-08T11:18:32;22.60;91.00
9167;DHT22;4618;48.818;9.088;2023-05-08T11:21:00;22.60;99.90
9167;DHT22;4618;48.818;9.088;2023-05-08T11:23:29;22.40;1.00
9167;DHT22;4618;48.818;9.088;2023-05-08T11:26:02;22.20;99.90
9167;DHT22;4618;48.818;9.088;2023-05-08T11:28:38;22.10;1.00
9167;DHT22;4618;48.818;9.088;2023-05-08T11:31:05;22.60;1.00
9167;DHT22;4618;48.818;9.088;2023-05-08T11:33:32;23.10;1.00
9167;DHT22;4618;48.818;9.088;2023-05-08T11:36:14;23.60;99.90
9167;DHT22;4618;48.818;9.088;2023-05-08T11:38:41;23.80;1.00
9167;DHT22;4618;48.818;9.088;2023-05-08T11:41:23;25.10;99.90
9167;DHT22;4618;48.818;9.088;2023-05-08T11:49:15;26.40;44.10
9167;DHT22;4618;48.818;9.088;2023-05-08T11:51:42;25.50;99.90
9167;DHT22;4618;48.818;9.088;2023-05-08T11:54:11;25.00;1.00
9167;DHT22;4618;48.818;9.088;2023-05-08T11:56:37;24.10;1.00
9167;DHT22;4618;48.818;9.088;2023-05-08T11:59:04;23.90;1.00
9167;DHT22;4618;48.818;9.088;2023-05-08T12:01:31;23.40;1.00
9167;DHT22;4618;48.818;9.088;2023-05-08T12:04:07;22.90;99.90
9167;DHT22;4618;48.818;9.088;2023-05-08T12:06:34;22.80;1.00
9167;DHT22;4618;48.818;9.088;2023-05-08T12:09:01;23.40;99.90
9167;DHT22;4618;48.818;9.088;2023-05-08T12:11:26;23.60;1.00
9167;DHT22;4618;48.818;9.088;2023-05-08T12:13:53;23.90;99.90
9167;DHT22;4618;48.818;9.088;2023-05-08T12:16:19;23.70;99.90
9167;DHT22;4618;48.818;9.088;2023-05-08T12:18:49;23.10;1.00
9167;DHT22;4618;48.818;9.088;2023-05-08T12:21:15;22.90;1.00
9167;DHT22;4618;48.818;9.088;2023-05-08T12:23:41;22.70;1.00
9167;DHT22;4618;48.818;9.088;2023-05-08T12:26:07;22.70;99.90
9167;DHT22;4618;48.818;9.088;2023-05-08T12:28:33;22.80;1.00
9167;DHT22;4618;48.818;9.088;2023-05-08T12:31:02;22.10;66.50
9167;DHT22;4618;48.818;9.088;2023-05-08T12:33:28;21.70;1.00
9167;DHT22;4618;48.818;9.088;2023-05-08T12:35:56;21.90;99.90
9167;DHT22;4618;48.818;9.088;2023-05-08T12:38:25;21.80;1.00
9167;DHT22;4618;48.818;9.088;2023-05-08T12:40:51;21.80;53.60
9167;DHT22;4618;48.818;9.088;2023-05-08T12:43:20;21.60;1.00
9167;DHT22;4618;48.818;9.088;2023-05-08T12:45:49;21.70;94.60
9167;DHT22;4618;48.818;9.088;2023-05-08T12:48:16;21.60;1.00
9167;DHT22;4618;48.818;9.088;2023-05-08T12:50:44;21.50;1.00
9167;DHT22;4618;48.818;9.088;2023-05-08T12:53:14;21.30;1.00
9167;DHT22;4618;48.818;9.088;2023-05-08T12:55:55;20.90;99.90
9167;DHT22;4618;48.818;9.088;2023-05-08T12:58:25;20.50;99.90
9167;DHT22;4618;48.818;9.088;2023-05-08T13:00:51;20.10;1.00
9167;DHT22;4618;48.818;9.088;2023-05-08T13:03:35;19.90;99.90
9167;DHT22;4618;48.818;9.088;2023-05-08T13:06:00;19.70;99.90
9167;DHT22;4618;48.818;9.088;2023-05-08T13:08:30;19.50;1.00
9167;DHT22;4618;48.818;9.088;2023-05-08T13:10:57;19.40;1.00
9167;DHT22;4618;48.818;9.088;2023-05-08T13:13:23;19.20;98.30
9167;DHT22;4618;48.818;9.088;2023-05-08T13:15:49;19.10;1.00
9167;DHT22;4618;48.818;9.088;2023-05-08T13:18:15;19.00;1.00
9167;DHT22;4618;48.818;9.088;2023-05-08T13:20:41;18.90;1.00
9167;DHT22;4618;48.818;9.088;2023-05-08T13:23:06;18.80;1.00
9167;DHT22;4618;48.818;9.088;2023-05-08T13:25:32;18.70;1.00
9167;DHT22;4618;48.818;9.088;2023-05-08T13:27:58;18.60;1.00
9167;DHT22;4618;48.818;9.088;2023-05-08T13:30:24;18.50;99.90
9167;DHT22;4618;48.818;9.088;2023-05-08T13:32:50;18.50;99.90
9167;DHT22;4618;48.818;9.088;2023-05-08T13:35:16;18.60;1.00
9167;DHT22;4618;48.818;9.088;2023-05-08T13:37:41;18.50;93.50
9167;DHT22;4618;48.818;9.088;2023-05-08T13:40:07;18.60;99.90
9167;DHT22;4618;48.818;9.088;2023-05-08T13:42:33;18.60;99.90
9167;DHT22;4618;48.818;9.088;2023-05-08T13:44:58;18.50;99.70
9167;DHT22;4618;48.818;9.088;2023-05-08T13:47:24;18.90;99.90
9167;DHT22;4618;48.818;9.088;2023-05-08T13:49:49;19.30;99.90
9167;DHT22;4618;48.818;9.088;2023-05-08T13:52:15;20.00;99.90
9167;DHT22;4618;48.818;9.088;2023-05-08T13:54:41;20.70;49.20
9167;DHT22;4618;48.818;9.088;2023-05-08T13:57:06;21.70;1.00
9167;DHT22;4618;48.818;9.088;2023-05-08T13:59:32;21.90;99.90
9167;DHT22;4618;48.818;9.088;2023-05-08T14:01:58;21.90;99.90
9167;DHT22;4618;48.818;9.088;2023-05-08T14:04:23;21.60;99.90
9167;DHT22;4618;48.818;9.088;2023-05-08T14:06:49;21.80;99.90
9167;DHT22;4618;48.818;9.088;2023-05-08T14:09:14;21.90;99.90
9167;DHT22;4618;48.818;9.088;2023-05-08T14:11:40;22.20;1.00
9167;DHT22;4618;48.818;9.088;2023-05-08T14:14:05;22.50;99.90
9167;DHT22;4618;48.818;9.088;2023-05-08T14:16:31;23.20;99.90
9167;DHT22;4618;48.818;9.088;2023-05-08T14:18:57;24.20;99.90
9167;DHT22;4618;48.818;9.088;2023-05-08T14:21:22;24.30;1.00
9167;DHT22;4618;48.818;9.088;2023-05-08T14:23:48;24.40;1.00
9167;DHT22;4618;48.818;9.088;2023-05-08T14:26:13;23.70;1.00
9167;DHT22;4618;48.818;9.088;2023-05-08T14:28:39;23.50;1.00
9167;DHT22;4618;48.818;9.088;2023-05-08T14:31:04;23.10;1.00
9167;DHT22;4618;48.818;9.088;2023-05-08T14:33:30;22.20;99.90
9167;DHT22;4618;48.818;9.088;2023-05-08T14:35:56;22.00;99.90
9167;DHT22;4618;48.818;9.088;2023-05-08T14:38:21;21.40;99.90
9167;DHT22;4618;48.818;9.088;2023-05-08T14:40:50;21.00;99.90
9167;DHT22;4618;48.818;9.088;2023-05-08T14:43:16;20.70;99.90
9167;DHT22;4618;48.818;9.088;2023-05-08T14:45:41;20.30;1.00
9167;DHT22;4618;48.818;9.088;2023-05-08T14:48:07;20.40;99.90
9167;DHT22;4618;48.818;9.088;2023-05-08T14:50:32;20.00;1.00
9167;DHT22;4618;48.818;9.088;2023-05-08T14:52:58;19.70;99.90
9167;DHT22;4618;48.818;9.088;2023-05-08T14:55:23;19.40;1.00
9167;DHT22;4618;48.818;9.088;2023-05-08T14:57:49;19.40;1.00
9167;DHT22;4618;48.818;9.088;2023-05-08T15:00:15;19.40;99.90
9167;DHT22;4618;48.818;9.088;2023-05-08T15:02:41;19.50;99.90
9167;DHT22;4618;48.818;9.088;2023-05-08T15:05:07;19.50;1.00
9167;DHT22;4618;48.818;9.088;2023-05-08T15:07:32;19.60;1.00
9167;DHT22;4618;48.818;9.088;2023-05-08T15:09:58;19.70;1.00
9167;DHT22;4618;48.818;9.088;2023-05-08T15:12:23;19.70;99.90
9167;DHT22;4618;48.818;9.088;2023-05-08T15:14:49;19.70;1.00
9167;DHT22;4618;48.818;9.088;2023-05-08T15:17:14;19.70;99.90
9167;DHT22;4618;48.818;9.088;2023-05-08T15:19:40;19.50;1.00
9167;DHT22;4618;48.818;9.088;2023-05-08T15:22:12;19.70;1.00
9167;DHT22;4618;48.818;9.088;2023-05-08T15:24:37;19.90;36.20
9167;DHT22;4618;48.818;9.088;2023-05-08T15:27:03;19.90;1.00
9167;DHT22;4618;48.818;9.088;2023-05-08T15:29:28;20.00;43.30
9167;DHT22;4618;48.818;9.088;2023-05-08T15:31:54;19.90;1.00
9167;DHT22;4618;48.818;9.088;2023-05-08T15:34:19;19.90;1.00
9167;DHT22;4618;48.818;9.088;2023-05-08T15:36:45;19.80;1.00
9167;DHT22;4618;48.818;9.088;2023-05-08T15:39:11;19.70;1.00
9167;DHT22;4618;48.818;9.088;2023-05-08T15:41:36;19.50;72.30
9167;DHT22;4618;48.818;9.088;2023-05-08T15:44:04;19.50;92.90
9167;DHT22;4618;48.818;9.088;2023-05-08T15:46:29;19.50;99.90
9167;DHT22;4618;48.818;9.088;2023-05-08T15:48:55;19.30;99.90
9167;DHT22;4618;48.818;9.088;2023-05-08T15:51:20;19.30;1.00
9167;DHT22;4618;48.818;9.088;2023-05-08T15:53:46;19.20;1.00
9167;DHT22;4618;48.818;9.088;2023-05-08T15:56:11;19.10;99.90
9167;DHT22;4618;48.818;9.088;2023-05-08T15:58:37;19.10;1.00
9167;DHT22;4618;48.818;9.088;2023-05-08T16:01:06;19.10;99.90
9167;DHT22;4618;48.818;9.088;2023-05-08T16:03:32;18.90;1.00
9167;DHT22;4618;48.818;9.088;2023-05-08T16:05:58;18.80;1.00
9167;DHT22;4618;48.818;9.088;2023-05-08T16:08:23;19.00;1.00
9167;DHT22;4618;48.818;9.088;2023-05-08T16:10:49;19.00;99.90
9167;DHT22;4618;48.818;9.088;2023-05-08T16:13:14;19.10;99.90
9167;DHT22;4618;48.818;9.088;2023-05-08T16:15:40;19.10;99.90
9167;DHT22;4618;48.818;9.088;2023-05-08T16:18:06;18.90;1.00
9167;DHT22;4618;48.818;9.088;2023-05-08T16:20:31;18.60;99.90
9167;DHT22;4618;48.818;9.088;2023-05-08T16:22:57;18.50;1.00
9167;DHT22;4618;48.818;9.088;2023-05-08T16:25:23;18.50;1.00
9167;DHT22;4618;48.818;9.088;2023-05-08T16:27:48;18.40;1.00
9167;DHT22;4618;48.818;9.088;2023-05-08T16:30:14;18.20;82.80
9167;DHT22;4618;48.818;9.088;2023-05-08T16:32:40;18.10;99.90
9167;DHT22;4618;48.818;9.088;2023-05-08T16:35:05;18.00;1.00
9167;DHT22;4618;48.818;9.088;2023-05-08T16:37:31;17.90;1.00
9167;DHT22;4618;48.818;9.088;2023-05-08T16:39:57;17.70;1.00
9167;DHT22;4618;48.818;9.088;2023-05-08T16:42:22;17.70;1.00
9167;DHT22;4618;48.818;9.088;2023-05-08T16:44:47;17.60;84.40
9167;DHT22;4618;48.818;9.088;2023-05-08T16:47:13;17.50;99.90
9167;DHT22;4618;48.818;9.088;2023-05-08T16:49:38;17.50;99.90
9167;DHT22;4618;48.818;9.088;2023-05-08T16:52:05;17.60;99.90
9167;DHT22;4618;48.818;9.088;2023-05-08T16:54:30;17.60;1.00
9167;DHT22;4618;48.818;9.088;2023-05-08T16:56:56;17.60;14.70
9167;DHT22;4618;48.818;9.088;2023-05-08T16:59:21;17.50;99.90
9167;DHT22;4618;48.818;9.088;2023-05-08T17:01:47;17.60;1.00
9167;DHT22;4618;48.818;9.088;2023-05-08T17:04:12;17.60;1.00
9167;DHT22;4618;48.818;9.088;2023-05-08T17:06:38;17.70;1.00
9167;DHT22;4618;48.818;9.088;2023-05-08T17:09:04;17.70;99.90